Time;durP1;ratioP1;P1;durP2;ratioP2;P2;SDS_P1;SDS_P2;PMS_P1;PMS_P2;Temp;Humidity;BMP_temperature;BMP_pressure;BME280_temperature;BME280_humidity;BME280_pressure;Samples;Min_cycle;Max_cycle;Signal;HPM_P1;HPM_P2
2022/09/13 00:01:12;;;;;;;5.80;1.80;;;;;;;;;;5064724;28;20021;-81
2022/09/13 00:17:43;;;;;;;3.35;1.80;;;;;;;;;;5064926;28;20105;-81
2022/09/13 00:20:08;;;;;;;3.95;1.67;;;;;;;;;;5064250;28;20017;-79
2022/09/13 00:22:34;;;;;;;3.97;1.85;;;;;;;;;;5064135;28;20024;-80
2022/09/13 00:24:59;;;;;;;4.15;1.65;;;;;;;;;;5062296;28;20095;-80
2022/09/13 00:27:25;;;;;;;4.40;1.77;;;;;;;;;;5064076;28;20029;-80
2022/09/13 00:29:50;;;;;;;4.63;1.70;;;;;;;;;;5064211;28;20020;-81
2022/09/13 00:32:16;;;;;;;2.40;1.60;;;;;;;;;;5064339;28;20017;-81
2022/09/13 00:34:41;;;;;;;2.55;1.50;;;;;;;;;;5064115;28;20031;-82
2022/09/13 00:37:07;;;;;;;3.33;1.60;;;;;;;;;;5063780;28;20098;-81
2022/09/13 00:39:33;;;;;;;4.40;1.83;;;;;;;;;;5064309;28;20321;-82
2022/09/13 00:41:58;;;;;;;2.55;1.52;;;;;;;;;;5064104;28;20059;-81
2022/09/13 00:44:54;;;;;;;3.60;1.60;;;;;;;;;;5063586;28;20059;-81
2022/09/13 00:47:28;;;;;;;3.40;1.83;;;;;;;;;;5063907;28;20032;-81
2022/09/13 00:50:24;;;;;;;8.35;1.83;;;;;;;;;;5064102;28;20090;-81
2022/09/13 00:53:00;;;;;;;6.75;2.03;;;;;;;;;;5063861;28;20146;-81
2022/09/13 00:55:34;;;;;;;4.68;2.00;;;;;;;;;;5063840;28;20212;-82
2022/09/13 00:58:04;;;;;;;12.90;2.00;;;;;;;;;;5063890;28;20321;-80
2022/09/13 01:00:30;;;;;;;6.15;1.77;;;;;;;;;;5062721;28;20103;-81
2022/09/13 01:02:59;;;;;;;5.60;1.90;;;;;;;;;;5063995;28;20021;-81
2022/09/13 01:05:29;;;;;;;4.57;1.90;;;;;;;;;;5063866;28;20028;-81
2022/09/13 01:07:56;;;;;;;4.78;2.05;;;;;;;;;;5063642;28;20224;-81
2022/09/13 01:10:22;;;;;;;4.47;2.05;;;;;;;;;;5063610;28;20101;-81
2022/09/13 01:13:10;;;;;;;4.63;2.05;;;;;;;;;;5063890;28;20023;-81
2022/09/13 01:15:35;;;;;;;7.78;2.33;;;;;;;;;;5063979;28;20714;-81
2022/09/13 01:18:02;;;;;;;22.73;2.75;;;;;;;;;;5063676;28;20029;-81
2022/09/13 01:20:45;;;;;;;7.22;2.40;;;;;;;;;;5063706;28;20021;-81
2022/09/13 01:23:49;;;;;;;12.02;2.30;;;;;;;;;;5063639;28;20020;-81
2022/09/13 01:26:15;;;;;;;16.27;2.70;;;;;;;;;;5063546;28;20078;-81
2022/09/13 01:28:52;;;;;;;11.55;2.30;;;;;;;;;;5063541;28;20029;-81
2022/09/13 01:31:58;;;;;;;5.40;1.90;;;;;;;;;;5063534;28;20017;-81
2022/09/13 01:34:41;;;;;;;4.22;1.88;;;;;;;;;;5062322;28;20033;-80
2022/09/13 01:37:21;;;;;;;3.03;1.80;;;;;;;;;;5062034;28;20033;-81
2022/09/13 01:40:18;;;;;;;4.05;2.05;;;;;;;;;;5063522;28;20032;-80
2022/09/13 01:42:52;;;;;;;3.88;1.83;;;;;;;;;;5063409;28;20063;-81
2022/09/13 01:45:29;;;;;;;3.33;1.70;;;;;;;;;;5063475;28;20048;-80
2022/09/13 01:48:23;;;;;;;3.88;2.03;;;;;;;;;;5063295;28;20032;-80
2022/09/13 01:51:22;;;;;;;7.07;2.10;;;;;;;;;;5063613;28;20374;-80
2022/09/13 01:53:54;;;;;;;3.03;1.90;;;;;;;;;;5063373;28;20029;-80
2022/09/13 01:56:30;;;;;;;3.92;2.00;;;;;;;;;;5063834;28;20025;-80
2022/09/13 01:59:00;;;;;;;3.38;1.80;;;;;;;;;;5066987;28;20241;-81
2022/09/13 02:01:42;;;;;;;3.88;2.00;;;;;;;;;;5067005;28;20025;-79
2022/09/13 02:04:12;;;;;;;4.75;2.10;;;;;;;;;;5066898;28;20021;-79
2022/09/13 02:07:01;;;;;;;3.50;2.00;;;;;;;;;;5066687;28;20036;-79
2022/09/13 02:09:31;;;;;;;6.63;2.00;;;;;;;;;;5066745;28;20028;-79
2022/09/13 02:12:05;;;;;;;7.03;2.20;;;;;;;;;;5066792;28;20025;-79
2022/09/13 02:14:35;;;;;;;4.93;2.30;;;;;;;;;;5066675;28;20020;-80
2022/09/13 02:17:04;;;;;;;4.50;1.95;;;;;;;;;;5065561;28;20067;-80
2022/09/13 02:19:31;;;;;;;3.88;2.30;;;;;;;;;;5066470;28;20032;-79
2022/09/13 02:21:59;;;;;;;5.07;2.30;;;;;;;;;;5066543;28;20045;-79
2022/09/13 02:24:47;;;;;;;4.50;2.40;;;;;;;;;;5066512;28;20123;-79
2022/09/13 02:27:17;;;;;;;8.15;2.50;;;;;;;;;;5065055;28;20067;-79
2022/09/13 02:29:45;;;;;;;6.25;2.42;;;;;;;;;;5066396;28;20029;-79
2022/09/13 02:32:23;;;;;;;5.75;2.40;;;;;;;;;;5066373;28;20383;-79
2022/09/13 02:34:56;;;;;;;9.10;2.33;;;;;;;;;;5066349;28;20025;-79
2022/09/13 02:37:24;;;;;;;10.57;2.60;;;;;;;;;;5066193;28;20055;-79
2022/09/13 02:39:55;;;;;;;6.38;2.33;;;;;;;;;;5066163;28;20044;-79
2022/09/13 02:42:43;;;;;;;6.10;2.47;;;;;;;;;;5066141;28;20386;-79
2022/09/13 02:45:12;;;;;;;7.72;2.50;;;;;;;;;;5066132;28;20028;-80
2022/09/13 02:47:56;;;;;;;11.95;2.70;;;;;;;;;;5065276;28;20024;-77
2022/09/13 02:50:48;;;;;;;6.82;2.55;;;;;;;;;;5066218;28;20062;-79
2022/09/13 02:53:37;;;;;;;9.65;2.92;;;;;;;;;;5065926;28;20320;-79
2022/09/13 02:56:22;;;;;;;9.55;3.20;;;;;;;;;;5064705;28;20071;-79
2022/09/13 02:59:11;;;;;;;5.65;2.50;;;;;;;;;;5065913;28;20084;-78
2022/09/13 03:01:38;;;;;;;6.13;2.30;;;;;;;;;;5064806;28;20347;-79
2022/09/13 03:04:03;;;;;;;5.03;2.60;;;;;;;;;;5065795;28;20047;-79
2022/09/13 03:06:29;;;;;;;6.63;2.33;;;;;;;;;;5065303;28;20028;-78
2022/09/13 03:08:59;;;;;;;8.20;2.67;;;;;;;;;;5065726;28;20028;-79
2022/09/13 03:12:02;;;;;;;5.93;2.60;;;;;;;;;;5065536;28;20032;-79
2022/09/13 03:14:43;;;;;;;7.80;2.40;;;;;;;;;;5065556;28;20029;-79
2022/09/13 03:17:28;;;;;;;5.35;2.15;;;;;;;;;;5065505;28;20017;-80
2022/09/13 03:20:11;;;;;;;4.88;2.33;;;;;;;;;;5064799;28;20025;-79
2022/09/13 03:23:22;;;;;;;8.38;2.33;;;;;;;;;;5065424;28;20097;-79
2022/09/13 03:26:02;;;;;;;8.30;2.35;;;;;;;;;;5064108;28;20028;-79
2022/09/13 03:29:00;;;;;;;7.63;2.53;;;;;;;;;;5065273;28;20040;-80
2022/09/13 03:31:47;;;;;;;8.55;2.55;;;;;;;;;;5063858;28;20225;-78
2022/09/13 03:34:39;;;;;;;5.45;2.70;;;;;;;;;;5065181;28;20236;-79
2022/09/13 03:37:17;;;;;;;3.70;2.35;;;;;;;;;;5064778;28;20048;-79
2022/09/13 03:39:53;;;;;;;6.45;2.22;;;;;;;;;;5065180;28;20104;-80
2022/09/13 03:42:23;;;;;;;5.60;2.28;;;;;;;;;;5063902;28;20029;-79
2022/09/13 03:44:52;;;;;;;5.85;2.67;;;;;;;;;;5064877;28;20217;-79
2022/09/13 03:47:20;;;;;;;8.15;2.60;;;;;;;;;;5064863;28;20036;-80
2022/09/13 03:49:46;;;;;;;4.78;2.33;;;;;;;;;;5064884;28;20025;-79
2022/09/13 03:52:12;;;;;;;4.32;2.63;;;;;;;;;;5064825;28;20044;-80
2022/09/13 03:54:38;;;;;;;3.67;2.30;;;;;;;;;;5064826;28;20036;-79
2022/09/13 03:57:09;;;;;;;11.77;2.40;;;;;;;;;;5064810;28;20260;-80
2022/09/13 03:59:37;;;;;;;5.50;2.40;;;;;;;;;;5064767;28;20040;-79
2022/09/13 04:02:03;;;;;;;4.97;2.50;;;;;;;;;;5064702;28;20021;-79
2022/09/13 04:04:28;;;;;;;7.63;2.40;;;;;;;;;;5064539;28;20024;-79
2022/09/13 04:06:55;;;;;;;7.72;2.47;;;;;;;;;;5063814;28;20108;-78
2022/09/13 04:09:22;;;;;;;4.35;2.30;;;;;;;;;;5080031;28;20257;-79
2022/09/13 04:11:47;;;;;;;5.68;2.10;;;;;;;;;;5064119;28;20321;-79
2022/09/13 04:14:14;;;;;;;5.05;2.30;;;;;;;;;;5064415;28;20139;-79
2022/09/13 04:16:40;;;;;;;5.57;2.50;;;;;;;;;;5063177;28;20205;-79
2022/09/13 04:19:06;;;;;;;5.65;2.40;;;;;;;;;;5063166;28;20021;-78
2022/09/13 04:21:31;;;;;;;6.55;2.30;;;;;;;;;;5063349;28;20036;-79
2022/09/13 04:23:56;;;;;;;4.38;2.25;;;;;;;;;;5064136;28;20087;-78
2022/09/13 04:26:22;;;;;;;7.95;2.42;;;;;;;;;;5063914;28;20028;-79
2022/09/13 04:28:47;;;;;;;5.88;2.20;;;;;;;;;;5063104;28;20025;-78
2022/09/13 04:31:12;;;;;;;4.25;2.35;;;;;;;;;;5064200;28;20047;-79
2022/09/13 04:33:38;;;;;;;10.80;2.53;;;;;;;;;;5064115;28;20373;-80
2022/09/13 04:36:03;;;;;;;7.95;2.67;;;;;;;;;;5063911;28;20052;-80
2022/09/13 04:38:30;;;;;;;8.85;2.40;;;;;;;;;;5064044;28;20029;-80
2022/09/13 04:40:57;;;;;;;4.07;2.30;;;;;;;;;;5064210;28;20052;-79
2022/09/13 04:43:23;;;;;;;15.25;3.25;;;;;;;;;;5062861;28;20020;-80
2022/09/13 04:45:49;;;;;;;9.77;2.58;;;;;;;;;;5063903;28;20182;-79
2022/09/13 04:48:14;;;;;;;6.15;2.53;;;;;;;;;;5064018;28;20025;-80
2022/09/13 04:50:40;;;;;;;9.90;3.20;;;;;;;;;;5063891;28;20316;-80
2022/09/13 04:53:05;;;;;;;7.55;3.00;;;;;;;;;;5064033;28;20025;-80
2022/09/13 04:55:30;;;;;;;6.15;2.60;;;;;;;;;;5062605;28;20100;-80
2022/09/13 04:57:56;;;;;;;7.63;2.70;;;;;;;;;;5063739;28;20213;-80
2022/09/13 05:00:21;;;;;;;14.50;3.13;;;;;;;;;;5063916;28;20021;-80
2022/09/13 05:02:47;;;;;;;24.40;3.08;;;;;;;;;;5064098;28;20024;-80
2022/09/13 05:05:12;;;;;;;11.82;2.60;;;;;;;;;;5063777;28;20023;-80
2022/09/13 05:07:38;;;;;;;20.08;3.20;;;;;;;;;;5063510;28;20031;-80
2022/09/13 05:10:03;;;;;;;13.90;3.15;;;;;;;;;;5063844;28;20020;-82
2022/09/13 05:12:29;;;;;;;6.72;2.92;;;;;;;;;;5063528;28;20347;-79
2022/09/13 05:14:55;;;;;;;9.88;3.30;;;;;;;;;;5062403;28;20017;-79
2022/09/13 05:17:20;;;;;;;12.88;3.00;;;;;;;;;;5063618;28;20055;-79
2022/09/13 05:19:46;;;;;;;23.35;3.10;;;;;;;;;;5063645;28;20017;-80
2022/09/13 05:22:12;;;;;;;42.28;4.50;;;;;;;;;;5063580;28;20028;-79
2022/09/13 05:24:37;;;;;;;17.73;3.42;;;;;;;;;;5063542;28;20036;-79
2022/09/13 05:27:03;;;;;;;31.25;3.45;;;;;;;;;;5063608;28;20029;-81
2022/09/13 05:29:28;;;;;;;33.47;3.22;;;;;;;;;;5063866;28;20025;-82
2022/09/13 05:31:53;;;;;;;28.02;3.33;;;;;;;;;;5067208;28;20096;-80
2022/09/13 05:34:19;;;;;;;23.00;3.28;;;;;;;;;;5067223;28;20044;-78
2022/09/13 05:36:45;;;;;;;7.93;2.50;;;;;;;;;;5066161;28;20232;-79
2022/09/13 05:39:16;;;;;;;7.35;3.00;;;;;;;;;;5066078;28;20028;-79
2022/09/13 05:41:42;;;;;;;6.15;2.38;;;;;;;;;;5067188;28;20093;-79
2022/09/13 05:44:08;;;;;;;6.80;2.40;;;;;;;;;;5067408;28;20013;-79
2022/09/13 05:46:33;;;;;;;9.15;2.90;;;;;;;;;;5066934;28;20100;-79
2022/09/13 05:48:59;;;;;;;4.95;2.17;;;;;;;;;;5066770;28;20434;-79
2022/09/13 05:51:25;;;;;;;6.70;2.20;;;;;;;;;;5066756;28;20024;-79
2022/09/13 05:53:52;;;;;;;8.88;2.40;;;;;;;;;;5066883;28;20027;-79
2022/09/13 05:56:25;;;;;;;10.45;2.30;;;;;;;;;;5066914;28;20025;-79
2022/09/13 05:58:52;;;;;;;6.50;2.25;;;;;;;;;;5066950;28;20048;-79
2022/09/13 06:01:20;;;;;;;6.35;2.15;;;;;;;;;;5066669;28;20088;-79
2022/09/13 06:03:47;;;;;;;7.13;2.40;;;;;;;;;;5066698;28;20032;-78
2022/09/13 06:06:13;;;;;;;6.10;2.45;;;;;;;;;;5066478;28;20021;-80
2022/09/13 06:08:38;;;;;;;8.10;2.83;;;;;;;;;;5066189;28;20067;-79
2022/09/13 06:11:06;;;;;;;8.70;3.45;;;;;;;;;;5066654;28;20044;-79
2022/09/13 06:13:32;;;;;;;6.75;2.92;;;;;;;;;;5066380;28;20031;-79
2022/09/13 06:15:58;;;;;;;6.78;3.00;;;;;;;;;;5066223;28;20336;-80
2022/09/13 06:18:24;;;;;;;7.20;3.15;;;;;;;;;;5066278;28;20033;-79
2022/09/13 06:20:56;;;;;;;7.63;3.20;;;;;;;;;;5066212;28;20032;-80
2022/09/13 06:23:21;;;;;;;11.50;3.13;;;;;;;;;;5065000;28;20320;-79
2022/09/13 06:25:49;;;;;;;5.55;3.08;;;;;;;;;;5066144;28;20032;-79
2022/09/13 06:28:14;;;;;;;7.75;2.60;;;;;;;;;;5066074;28;20056;-79
2022/09/13 06:30:40;;;;;;;6.55;2.90;;;;;;;;;;5066262;28;20021;-80
2022/09/13 06:33:05;;;;;;;7.05;2.50;;;;;;;;;;5066273;28;20017;-80
2022/09/13 06:35:31;;;;;;;8.80;2.70;;;;;;;;;;5066074;28;20063;-79
2022/09/13 06:37:57;;;;;;;8.13;2.70;;;;;;;;;;5064831;28;20039;-80
2022/09/13 06:40:23;;;;;;;13.20;2.88;;;;;;;;;;5066274;28;20024;-80
2022/09/13 06:42:49;;;;;;;8.02;2.90;;;;;;;;;;5065193;28;20032;-80
2022/09/13 06:45:14;;;;;;;10.70;2.78;;;;;;;;;;5065873;28;20080;-80
2022/09/13 06:47:40;;;;;;;8.88;2.80;;;;;;;;;;5065961;28;20028;-80
2022/09/13 06:50:06;;;;;;;11.80;3.33;;;;;;;;;;5065934;28;20021;-80
2022/09/13 06:52:32;;;;;;;10.32;3.22;;;;;;;;;;5065815;28;20035;-80
2022/09/13 06:54:57;;;;;;;12.23;3.00;;;;;;;;;;5065773;28;20269;-80
2022/09/13 06:57:23;;;;;;;11.32;3.15;;;;;;;;;;5065642;28;20035;-79
2022/09/13 06:59:48;;;;;;;15.07;3.20;;;;;;;;;;5065445;28;20021;-80
2022/09/13 07:02:14;;;;;;;19.48;3.10;;;;;;;;;;5065652;28;20078;-79
2022/09/13 07:04:39;;;;;;;9.93;3.08;;;;;;;;;;5065600;28;20017;-80
2022/09/13 07:07:04;;;;;;;8.45;2.92;;;;;;;;;;5065458;28;20020;-78
2022/09/13 07:09:30;;;;;;;7.53;3.20;;;;;;;;;;5065564;28;20029;-79
2022/09/13 07:11:56;;;;;;;11.65;3.28;;;;;;;;;;5065552;28;20092;-79
2022/09/13 07:14:26;;;;;;;12.20;3.17;;;;;;;;;;5065374;28;20025;-80
2022/09/13 07:16:52;;;;;;;10.02;3.25;;;;;;;;;;5065674;28;20021;-80
2022/09/13 07:19:22;;;;;;;10.80;3.20;;;;;;;;;;5065166;28;20059;-78
2022/09/13 07:21:49;;;;;;;11.45;3.65;;;;;;;;;;5065430;28;20067;-79
2022/09/13 07:24:16;;;;;;;18.40;4.00;;;;;;;;;;5065199;28;20025;-79
2022/09/13 07:26:41;;;;;;;10.77;3.42;;;;;;;;;;5065042;28;20324;-80
2022/09/13 07:29:10;;;;;;;13.15;3.88;;;;;;;;;;5065206;28;20028;-79
2022/09/13 07:31:38;;;;;;;12.55;3.17;;;;;;;;;;5065027;28;20029;-79
2022/09/13 07:34:06;;;;;;;9.68;2.85;;;;;;;;;;5064994;28;20289;-80
2022/09/13 07:36:34;;;;;;;9.32;2.97;;;;;;;;;;5064779;28;20104;-78
2022/09/13 07:39:00;;;;;;;13.85;2.80;;;;;;;;;;5064991;28;20040;-79
2022/09/13 07:41:27;;;;;;;10.27;2.58;;;;;;;;;;5064842;28;20209;-79
2022/09/13 07:43:54;;;;;;;10.43;2.80;;;;;;;;;;5065044;28;20020;-78
2022/09/13 07:46:24;;;;;;;9.07;2.45;;;;;;;;;;5064816;28;20017;-80
2022/09/13 07:48:52;;;;;;;11.63;2.50;;;;;;;;;;5064877;28;20249;-80
2022/09/13 07:51:20;;;;;;;8.48;2.45;;;;;;;;;;5063445;28;20021;-79
2022/09/13 07:53:47;;;;;;;7.60;2.33;;;;;;;;;;5063736;28;20043;-80
2022/09/13 07:56:15;;;;;;;6.95;2.58;;;;;;;;;;5064700;28;20088;-81
2022/09/13 07:58:43;;;;;;;10.35;2.45;;;;;;;;;;5063605;28;20229;-81
2022/09/13 08:01:14;;;;;;;11.98;2.45;;;;;;;;;;5064640;28;20032;-81
2022/09/13 08:03:40;;;;;;;13.80;2.55;;;;;;;;;;5064441;28;20017;-83
2022/09/13 08:06:06;;;;;;;9.10;2.58;;;;;;;;;;5064477;28;20016;-79
2022/09/13 08:08:33;;;;;;;9.32;2.70;;;;;;;;;;5064438;28;20028;-79
2022/09/13 08:11:00;;;;;;;8.23;2.67;;;;;;;;;;5064240;28;20025;-80
2022/09/13 08:13:25;;;;;;;11.63;2.92;;;;;;;;;;5064525;28;20036;-78
2022/09/13 08:15:51;;;;;;;9.15;2.70;;;;;;;;;;5064434;28;20025;-81
2022/09/13 08:18:17;;;;;;;9.45;2.95;;;;;;;;;;5064384;28;20235;-81
2022/09/13 08:20:43;;;;;;;7.38;2.25;;;;;;;;;;5064152;28;20055;-78
2022/09/13 08:23:09;;;;;;;10.55;2.83;;;;;;;;;;5064142;28;20033;-81
2022/09/13 08:25:36;;;;;;;4.07;2.10;;;;;;;;;;5063975;28;20344;-79
2022/09/13 08:28:09;;;;;;;5.82;2.10;;;;;;;;;;5064031;28;20075;-80
2022/09/13 08:30:36;;;;;;;4.45;2.00;;;;;;;;;;5064139;28;20063;-81
2022/09/13 08:33:03;;;;;;;7.45;2.38;;;;;;;;;;5064081;28;20213;-80
2022/09/13 08:35:29;;;;;;;5.05;1.90;;;;;;;;;;5064003;28;20021;-81
2022/09/13 08:37:55;;;;;;;4.88;1.95;;;;;;;;;;5064104;28;20029;-81
2022/09/13 08:40:22;;;;;;;6.40;1.90;;;;;;;;;;5064111;28;20025;-81
2022/09/13 08:43:01;;;;;;;6.45;2.20;;;;;;;;;;5063934;28;20048;-81
2022/09/13 08:45:26;;;;;;;6.25;2.00;;;;;;;;;;5062654;28;20036;-82
2022/09/13 08:47:56;;;;;;;4.93;1.88;;;;;;;;;;5063772;28;20029;-81
2022/09/13 08:50:27;;;;;;;5.13;1.80;;;;;;;;;;5063884;28;20025;-82
2022/09/13 08:53:28;;;;;;;5.47;2.00;;;;;;;;;;5063850;28;20031;-82
2022/09/13 08:56:05;;;;;;;5.30;1.83;;;;;;;;;;5063622;28;20090;-81
2022/09/13 08:59:01;;;;;;;4.22;1.90;;;;;;;;;;5063807;28;20048;-82
2022/09/13 09:01:52;;;;;;;4.53;2.05;;;;;;;;;;5063645;28;20201;-81
2022/09/13 09:04:28;;;;;;;4.15;1.95;;;;;;;;;;5063652;28;20027;-82
2022/09/13 09:07:11;;;;;;;6.00;1.90;;;;;;;;;;5066464;28;20029;-80
2022/09/13 09:09:56;;;;;;;6.00;2.03;;;;;;;;;;5067613;28;20029;-81
2022/09/13 09:12:35;;;;;;;5.28;1.83;;;;;;;;;;5066083;28;20029;-79
2022/09/13 09:15:21;;;;;;;4.70;1.73;;;;;;;;;;5066362;28;20021;-79
2022/09/13 09:18:03;;;;;;;4.88;1.70;;;;;;;;;;5067557;28;20075;-79
2022/09/13 09:20:47;;;;;;;8.77;1.98;;;;;;;;;;5067642;28;20032;-81
2022/09/13 09:23:19;;;;;;;6.65;1.80;;;;;;;;;;5067609;28;20025;-82
2022/09/13 09:25:45;;;;;;;5.72;1.92;;;;;;;;;;5067564;28;20261;-81
2022/09/13 09:28:13;;;;;;;4.95;1.73;;;;;;;;;;5067273;28;20035;-83
2022/09/13 09:30:55;;;;;;;6.47;1.80;;;;;;;;;;5067244;28;20080;-83
2022/09/13 09:33:35;;;;;;;5.72;1.77;;;;;;;;;;5067366;28;20029;-78
2022/09/13 09:36:13;;;;;;;4.43;2.05;;;;;;;;;;5067182;28;20041;-78
2022/09/13 09:38:42;;;;;;;7.95;1.80;;;;;;;;;;5066220;28;20278;-78
2022/09/13 09:41:26;;;;;;;5.15;1.80;;;;;;;;;;5067038;28;20093;-80
2022/09/13 09:44:15;;;;;;;6.57;1.40;;;;;;;;;;5067211;28;20021;-80
2022/09/13 09:46:41;;;;;;;2.85;1.60;;;;;;;;;;5063426;28;20033;-80
2022/09/13 09:52:07;;;;;;;5.70;1.75;;;;;;;;;;5067033;28;20036;-80
2022/09/13 09:54:34;;;;;;;6.28;2.40;;;;;;;;;;5067102;28;20071;-78
2022/09/13 09:56:59;;;;;;;4.50;1.70;;;;;;;;;;5066975;28;20032;-80
2022/09/13 09:59:28;;;;;;;6.22;1.75;;;;;;;;;;5065843;28;20267;-80
2022/09/13 10:01:56;;;;;;;5.88;1.70;;;;;;;;;;5066883;28;20017;-81
2022/09/13 10:04:22;;;;;;;4.15;1.70;;;;;;;;;;5066679;28;20020;-81
2022/09/13 10:06:48;;;;;;;5.72;1.88;;;;;;;;;;5066672;28;20395;-80
2022/09/13 10:09:21;;;;;;;3.42;1.60;;;;;;;;;;5066747;28;20059;-80
2022/09/13 10:11:52;;;;;;;3.95;1.70;;;;;;;;;;5066905;28;20099;-81
2022/09/13 10:14:27;;;;;;;5.40;1.80;;;;;;;;;;5066344;28;20025;-81
2022/09/13 10:17:17;;;;;;;3.50;1.60;;;;;;;;;;5065593;28;20017;-81
2022/09/13 10:19:58;;;;;;;6.07;1.80;;;;;;;;;;5066342;28;20021;-81
2022/09/13 10:22:24;;;;;;;4.72;1.77;;;;;;;;;;5065164;28;20032;-80
2022/09/13 10:24:49;;;;;;;6.20;2.00;;;;;;;;;;5066247;28;20021;-80
2022/09/13 10:27:36;;;;;;;6.50;1.85;;;;;;;;;;5066220;28;20402;-81
2022/09/13 10:30:05;;;;;;;4.13;1.65;;;;;;;;;;5065233;28;20036;-80
2022/09/13 10:32:31;;;;;;;6.68;1.80;;;;;;;;;;5066234;28;20301;-80
2022/09/13 10:35:07;;;;;;;3.28;1.60;;;;;;;;;;5066200;28;20198;-81
2022/09/13 10:37:34;;;;;;;6.75;1.80;;;;;;;;;;5066071;28;20033;-80
2022/09/13 10:40:02;;;;;;;9.00;1.70;;;;;;;;;;5066039;28;20063;-80
2022/09/13 10:42:29;;;;;;;3.38;1.67;;;;;;;;;;5066241;28;20058;-80
2022/09/13 10:45:01;;;;;;;5.32;2.17;;;;;;;;;;5065952;28;20024;-81
2022/09/13 10:47:33;;;;;;;4.95;1.83;;;;;;;;;;5065911;28;20039;-81
2022/09/13 10:50:17;;;;;;;4.45;1.70;;;;;;;;;;5066277;28;20025;-80
2022/09/13 10:52:45;;;;;;;6.80;1.77;;;;;;;;;;5066019;28;20088;-80
2022/09/13 10:55:23;;;;;;;3.78;1.60;;;;;;;;;;5065988;28;20051;-81
2022/09/13 10:57:51;;;;;;;4.38;1.70;;;;;;;;;;5066174;28;20079;-80
2022/09/13 11:00:20;;;;;;;6.53;1.90;;;;;;;;;;5065945;28;20328;-80
2022/09/13 11:02:58;;;;;;;5.35;1.80;;;;;;;;;;5065674;28;20056;-81
2022/09/13 11:05:27;;;;;;;3.22;1.60;;;;;;;;;;5065667;28;20028;-81
2022/09/13 11:08:11;;;;;;;4.38;1.80;;;;;;;;;;5064343;28;20028;-80
2022/09/13 11:11:24;;;;;;;5.13;1.83;;;;;;;;;;5065657;28;20025;-80
2022/09/13 11:14:28;;;;;;;7.10;1.63;;;;;;;;;;5053852;28;20033;-81
2022/09/13 11:17:08;;;;;;;3.58;1.73;;;;;;;;;;5045842;28;20043;-80
2022/09/13 11:20:04;;;;;;;4.38;1.63;;;;;;;;;;5065448;28;20021;-81
2022/09/13 11:22:29;;;;;;;5.43;1.83;;;;;;;;;;5064507;28;20028;-80
2022/09/13 11:25:24;;;;;;;4.78;1.70;;;;;;;;;;5065426;28;20093;-80
2022/09/13 11:28:08;;;;;;;4.25;1.63;;;;;;;;;;5063708;28;20232;-80
2022/09/13 11:31:08;;;;;;;7.25;1.92;;;;;;;;;;5065151;28;20021;-80
2022/09/13 11:34:01;;;;;;;5.93;1.70;;;;;;;;;;5063865;28;20047;-80
2022/09/13 11:36:46;;;;;;;3.05;1.63;;;;;;;;;;5064035;28;20037;-79
2022/09/13 11:39:12;;;;;;;5.47;1.70;;;;;;;;;;5065017;28;20092;-80
2022/09/13 11:41:47;;;;;;;3.97;1.77;;;;;;;;;;5065363;28;20025;-81
2022/09/13 11:44:37;;;;;;;4.68;1.50;;;;;;;;;;5065050;28;20025;-80
2022/09/13 11:47:39;;;;;;;6.82;1.90;;;;;;;;;;5064865;28;20052;-80
2022/09/13 11:50:32;;;;;;;4.13;1.67;;;;;;;;;;5064828;28;20048;-81
2022/09/13 11:53:23;;;;;;;6.80;1.95;;;;;;;;;;5064636;28;20049;-81
2022/09/13 11:55:54;;;;;;;3.90;1.60;;;;;;;;;;5063572;28;20071;-80
2022/09/13 11:58:35;;;;;;;7.57;1.90;;;;;;;;;;5064457;28;20021;-80
2022/09/13 12:01:07;;;;;;;7.25;1.88;;;;;;;;;;5064699;28;20066;-80
2022/09/13 12:03:49;;;;;;;5.38;1.90;;;;;;;;;;5064595;28;20025;-81
2022/09/13 12:06:37;;;;;;;8.43;2.10;;;;;;;;;;5064443;28;20029;-81
2022/09/13 12:09:12;;;;;;;2.83;1.83;;;;;;;;;;5063089;28;20028;-80
2022/09/13 12:11:44;;;;;;;3.08;1.70;;;;;;;;;;5064341;28;20021;-79
2022/09/13 12:14:20;;;;;;;5.28;1.90;;;;;;;;;;5064387;28;20028;-81
2022/09/13 12:16:50;;;;;;;7.03;1.77;;;;;;;;;;5064441;28;20029;-81
2022/09/13 12:19:26;;;;;;;6.20;1.80;;;;;;;;;;5064172;28;20308;-80
2022/09/13 12:21:56;;;;;;;5.72;1.90;;;;;;;;;;5064373;28;20067;-80
2022/09/13 12:24:36;;;;;;;5.53;1.88;;;;;;;;;;5064257;28;20039;-81
2022/09/13 12:27:27;;;;;;;3.28;1.77;;;;;;;;;;5064174;28;20037;-81
2022/09/13 12:30:02;;;;;;;5.63;1.80;;;;;;;;;;5064083;28;20074;-81
2022/09/13 12:32:28;;;;;;;5.50;1.80;;;;;;;;;;5063951;28;20028;-81
2022/09/13 12:34:59;;;;;;;3.22;1.70;;;;;;;;;;5063836;28;20021;-80
2022/09/13 12:37:57;;;;;;;4.45;1.92;;;;;;;;;;5063802;28;20029;-80
2022/09/13 12:40:54;;;;;;;5.18;2.03;;;;;;;;;;5063226;28;20024;-81
2022/09/13 12:43:49;;;;;;;3.75;1.70;;;;;;;;;;5062653;28;20082;-81
2022/09/13 12:46:36;;;;;;;3.53;1.88;;;;;;;;;;5063435;28;20240;-81
2022/09/13 12:49:10;;;;;;;6.05;1.95;;;;;;;;;;5064141;28;20029;-81
2022/09/13 12:52:05;;;;;;;3.15;1.80;;;;;;;;;;5064018;28;20029;-80
2022/09/13 12:54:59;;;;;;;6.63;1.80;;;;;;;;;;5063247;28;20370;-81
2022/09/13 12:57:30;;;;;;;3.90;2.00;;;;;;;;;;5063757;28;20036;-81
2022/09/13 13:00:20;;;;;;;5.70;2.00;;;;;;;;;;5062588;28;20029;-81
2022/09/13 13:03:01;;;;;;;5.75;1.92;;;;;;;;;;5063673;28;20031;-81
2022/09/13 13:05:34;;;;;;;3.80;1.83;;;;;;;;;;5063646;28;20317;-81
2022/09/13 13:08:25;;;;;;;6.32;2.10;;;;;;;;;;5063707;28;20055;-81
2022/09/13 13:11:11;;;;;;;3.67;2.08;;;;;;;;;;5060255;28;20028;-82
2022/09/13 13:13:39;;;;;;;5.30;2.17;;;;;;;;;;5062556;28;20017;-81
2022/09/13 13:16:26;;;;;;;6.85;2.40;;;;;;;;;;5063653;28;20025;-80
2022/09/13 13:18:54;;;;;;;7.38;2.00;;;;;;;;;;5062383;28;20025;-80
2022/09/13 13:21:30;;;;;;;4.82;2.00;;;;;;;;;;5063689;28;20021;-80
2022/09/13 13:24:14;;;;;;;3.67;2.10;;;;;;;;;;5063537;28;20031;-80
2022/09/13 13:26:50;;;;;;;5.90;2.17;;;;;;;;;;5063565;28;20059;-80
2022/09/13 13:29:21;;;;;;;4.40;1.98;;;;;;;;;;5063572;28;20067;-80
2022/09/13 13:32:06;;;;;;;4.78;2.08;;;;;;;;;;5063476;28;20084;-81
2022/09/13 13:34:42;;;;;;;4.95;2.28;;;;;;;;;;5062272;28;20025;-81
2022/09/13 13:37:08;;;;;;;7.55;2.22;;;;;;;;;;5063222;28;20045;-81
2022/09/13 13:39:41;;;;;;;5.05;1.92;;;;;;;;;;5063534;28;20029;-80
2022/09/13 13:42:12;;;;;;;11.80;2.17;;;;;;;;;;5063443;28;20048;-80
2022/09/13 13:44:37;;;;;;;4.50;2.00;;;;;;;;;;5063246;28;20254;-81
2022/09/13 13:47:06;;;;;;;5.55;2.08;;;;;;;;;;5063167;28;20028;-80
2022/09/13 13:49:34;;;;;;;5.95;1.95;;;;;;;;;;5062610;28;20027;-80
2022/09/13 13:52:23;;;;;;;7.97;2.20;;;;;;;;;;5066299;28;20017;-79
2022/09/13 13:55:01;;;;;;;9.75;2.40;;;;;;;;;;5056469;28;20036;-80
2022/09/13 13:57:32;;;;;;;4.35;2.00;;;;;;;;;;5066890;28;20028;-80
2022/09/13 14:00:04;;;;;;;6.72;2.20;;;;;;;;;;5066877;28;20052;-79
2022/09/13 14:02:48;;;;;;;5.03;2.38;;;;;;;;;;5066999;28;20021;-80
2022/09/13 14:05:19;;;;;;;6.05;2.28;;;;;;;;;;5065935;28;20032;-78
2022/09/13 14:07:57;;;;;;;5.53;2.20;;;;;;;;;;5066676;28;20052;-79
2022/09/13 14:10:45;;;;;;;5.15;2.20;;;;;;;;;;5066684;28;20193;-79
2022/09/13 14:13:21;;;;;;;6.18;2.42;;;;;;;;;;5066212;28;20037;-79
2022/09/13 14:15:51;;;;;;;6.93;2.10;;;;;;;;;;5066690;28;20024;-79
2022/09/13 14:18:45;;;;;;;4.75;2.15;;;;;;;;;;5066486;28;20021;-80
2022/09/13 14:21:28;;;;;;;5.03;2.45;;;;;;;;;;5047217;28;20205;-80
2022/09/13 14:24:19;;;;;;;4.43;1.98;;;;;;;;;;5066174;28;20084;-79
2022/09/13 14:26:46;;;;;;;5.88;2.08;;;;;;;;;;5066340;28;20033;-80
2022/09/13 14:29:16;;;;;;;6.13;2.30;;;;;;;;;;5066211;28;20021;-81
2022/09/13 14:31:48;;;;;;;5.75;2.40;;;;;;;;;;5066280;28;20029;-79
2022/09/13 14:34:36;;;;;;;6.03;2.40;;;;;;;;;;5064934;28;20032;-79
2022/09/13 14:37:05;;;;;;;8.75;2.30;;;;;;;;;;5065725;28;20337;-78
2022/09/13 14:39:31;;;;;;;6.20;2.38;;;;;;;;;;5065649;28;20025;-81
2022/09/13 14:42:11;;;;;;;6.88;2.20;;;;;;;;;;5066093;28;20017;-79
2022/09/13 14:44:36;;;;;;;7.65;2.45;;;;;;;;;;5065554;28;20340;-79
2022/09/13 14:47:13;;;;;;;8.25;2.17;;;;;;;;;;5065882;28;20186;-81
2022/09/13 14:49:43;;;;;;;7.85;2.67;;;;;;;;;;5066156;28;20017;-82
2022/09/13 14:52:18;;;;;;;5.60;2.60;;;;;;;;;;5065866;28;20232;-82
2022/09/13 14:54:50;;;;;;;9.13;2.53;;;;;;;;;;5066036;28;20112;-81
2022/09/13 14:57:37;;;;;;;6.80;2.40;;;;;;;;;;5065996;28;20205;-81
2022/09/13 15:00:18;;;;;;;4.88;2.15;;;;;;;;;;5064575;28;20025;-81
2022/09/13 15:03:00;;;;;;;7.45;2.65;;;;;;;;;;5065033;28;20029;-81
2022/09/13 15:05:31;;;;;;;7.10;2.53;;;;;;;;;;5065564;28;20017;-81
2022/09/13 15:07:56;;;;;;;6.30;2.45;;;;;;;;;;5065668;28;20027;-81
2022/09/13 15:10:32;;;;;;;8.45;2.60;;;;;;;;;;5065495;28;20017;-81
2022/09/13 15:12:57;;;;;;;8.40;2.53;;;;;;;;;;5065366;28;20025;-81
2022/09/13 15:15:34;;;;;;;8.13;2.53;;;;;;;;;;5063829;28;20356;-80
2022/09/13 15:18:05;;;;;;;6.88;2.53;;;;;;;;;;5065378;28;20063;-81
2022/09/13 15:20:43;;;;;;;7.75;2.63;;;;;;;;;;5065332;28;20025;-79
2022/09/13 15:23:35;;;;;;;10.18;2.75;;;;;;;;;;5064380;28;20028;-78
2022/09/13 15:26:21;;;;;;;13.00;3.00;;;;;;;;;;5064262;28;20017;-79
2022/09/13 15:28:58;;;;;;;6.93;2.90;;;;;;;;;;5062490;28;20032;-79
2022/09/13 15:31:28;;;;;;;5.93;2.65;;;;;;;;;;5062771;28;20309;-82
2022/09/13 15:34:15;;;;;;;8.18;2.88;;;;;;;;;;5065053;28;20093;-79
2022/09/13 15:36:40;;;;;;;10.50;3.53;;;;;;;;;;5064706;28;20040;-80